sensor_id;sensor_type;location;lat;lon;timestamp;temperature;humidity
19017;DHT22;9641;51.494;6.670;2023-02-25T00:01:16;3.90;99.90
19017;DHT22;9641;51.494;6.670;2023-02-25T00:03:45;3.90;99.90
19017;DHT22;9641;51.494;6.670;2023-02-25T00:06:13;4.00;99.90
19017;DHT22;9641;51.494;6.670;2023-02-25T00:08:42;4.00;99.90
19017;DHT22;9641;51.494;6.670;2023-02-25T00:11:11;4.00;99.90
19017;DHT22;9641;51.494;6.670;2023-02-25T00:13:39;4.00;99.90
19017;DHT22;9641;51.494;6.670;2023-02-25T00:16:07;4.00;99.90
19017;DHT22;9641;51.494;6.670;2023-02-25T00:18:34;4.00;99.90
19017;DHT22;9641;51.494;6.670;2023-02-25T00:21:05;4.00;99.90
19017;DHT22;9641;51.494;6.670;2023-02-25T00:23:34;4.00;99.90
19017;DHT22;9641;51.494;6.670;2023-02-25T00:26:02;4.00;99.90
19017;DHT22;9641;51.494;6.670;2023-02-25T00:28:32;3.90;99.90
19017;DHT22;9641;51.494;6.670;2023-02-25T00:31:04;3.90;99.90
19017;DHT22;9641;51.494;6.670;2023-02-25T00:33:31;4.00;99.90
19017;DHT22;9641;51.494;6.670;2023-02-25T00:35:59;3.90;99.90
19017;DHT22;9641;51.494;6.670;2023-02-25T00:38:27;3.90;99.90
19017;DHT22;9641;51.494;6.670;2023-02-25T00:40:54;3.90;99.90
19017;DHT22;9641;51.494;6.670;2023-02-25T00:43:21;3.90;99.90
19017;DHT22;9641;51.494;6.670;2023-02-25T00:45:48;3.90;99.90
19017;DHT22;9641;51.494;6.670;2023-02-25T00:48:15;3.90;99.90
19017;DHT22;9641;51.494;6.670;2023-02-25T00:50:42;4.00;99.90
19017;DHT22;9641;51.494;6.670;2023-02-25T00:53:09;4.00;99.90
19017;DHT22;9641;51.494;6.670;2023-02-25T00:55:37;4.00;99.90
19017;DHT22;9641;51.494;6.670;2023-02-25T00:58:04;4.00;99.90
19017;DHT22;9641;51.494;6.670;2023-02-25T01:00:31;3.90;99.90
19017;DHT22;9641;51.494;6.670;2023-02-25T01:02:58;3.90;99.90
19017;DHT22;9641;51.494;6.670;2023-02-25T01:05:25;4.00;99.90
19017;DHT22;9641;51.494;6.670;2023-02-25T01:07:52;3.90;99.90
19017;DHT22;9641;51.494;6.670;2023-02-25T01:10:19;3.90;99.90
19017;DHT22;9641;51.494;6.670;2023-02-25T01:12:49;4.00;99.90
19017;DHT22;9641;51.494;6.670;2023-02-25T01:15:16;4.00;99.90
19017;DHT22;9641;51.494;6.670;2023-02-25T01:17:43;3.90;99.90
19017;DHT22;9641;51.494;6.670;2023-02-25T01:20:10;3.80;99.90
19017;DHT22;9641;51.494;6.670;2023-02-25T01:22:38;3.80;99.90
19017;DHT22;9641;51.494;6.670;2023-02-25T01:25:10;3.70;99.90
19017;DHT22;9641;51.494;6.670;2023-02-25T01:27:37;3.70;99.90
19017;DHT22;9641;51.494;6.670;2023-02-25T01:30:08;3.60;99.90
19017;DHT22;9641;51.494;6.670;2023-02-25T01:32:35;3.70;99.90
19017;DHT22;9641;51.494;6.670;2023-02-25T01:35:03;3.70;99.90
19017;DHT22;9641;51.494;6.670;2023-02-25T01:37:30;3.70;99.90
19017;DHT22;9641;51.494;6.670;2023-02-25T01:39:57;3.70;99.90
19017;DHT22;9641;51.494;6.670;2023-02-25T01:42:23;3.70;99.90
19017;DHT22;9641;51.494;6.670;2023-02-25T01:45:22;3.70;99.90
19017;DHT22;9641;51.494;6.670;2023-02-25T01:47:52;3.70;99.90
19017;DHT22;9641;51.494;6.670;2023-02-25T01:50:24;3.70;99.90
19017;DHT22;9641;51.494;6.670;2023-02-25T01:52:53;3.70;99.90
19017;DHT22;9641;51.494;6.670;2023-02-25T01:55:22;3.70;99.90
19017;DHT22;9641;51.494;6.670;2023-02-25T01:57:49;3.60;99.90
19017;DHT22;9641;51.494;6.670;2023-02-25T02:00:17;3.60;99.90
19017;DHT22;9641;51.494;6.670;2023-02-25T02:02:46;3.50;99.90
19017;DHT22;9641;51.494;6.670;2023-02-25T02:05:15;3.50;99.90
19017;DHT22;9641;51.494;6.670;2023-02-25T02:07:42;3.50;99.90
19017;DHT22;9641;51.494;6.670;2023-02-25T02:10:10;3.50;99.90
19017;DHT22;9641;51.494;6.670;2023-02-25T02:12:39;3.50;99.90
19017;DHT22;9641;51.494;6.670;2023-02-25T02:15:09;3.50;99.90
19017;DHT22;9641;51.494;6.670;2023-02-25T02:17:39;3.50;99.90
19017;DHT22;9641;51.494;6.670;2023-02-25T02:20:18;3.60;99.90
19017;DHT22;9641;51.494;6.670;2023-02-25T02:22:58;3.70;99.90
19017;DHT22;9641;51.494;6.670;2023-02-25T02:25:50;3.60;99.90
19017;DHT22;9641;51.494;6.670;2023-02-25T02:28:39;3.60;99.90
19017;DHT22;9641;51.494;6.670;2023-02-25T02:31:21;3.70;99.90
19017;DHT22;9641;51.494;6.670;2023-02-25T02:33:55;3.70;99.90
19017;DHT22;9641;51.494;6.670;2023-02-25T02:36:33;3.70;99.90
19017;DHT22;9641;51.494;6.670;2023-02-25T02:39:09;3.70;99.90
19017;DHT22;9641;51.494;6.670;2023-02-25T02:41:43;3.70;99.90
19017;DHT22;9641;51.494;6.670;2023-02-25T02:44:18;3.80;99.90
19017;DHT22;9641;51.494;6.670;2023-02-25T02:46:51;3.70;99.90
19017;DHT22;9641;51.494;6.670;2023-02-25T02:49:26;3.70;99.90
19017;DHT22;9641;51.494;6.670;2023-02-25T02:51:58;3.80;99.90
19017;DHT22;9641;51.494;6.670;2023-02-25T02:54:31;3.80;99.90
19017;DHT22;9641;51.494;6.670;2023-02-25T02:57:00;3.80;99.90
19017;DHT22;9641;51.494;6.670;2023-02-25T02:59:31;3.80;99.90
19017;DHT22;9641;51.494;6.670;2023-02-25T03:02:05;3.80;99.90
19017;DHT22;9641;51.494;6.670;2023-02-25T03:04:37;3.80;99.90
19017;DHT22;9641;51.494;6.670;2023-02-25T03:07:07;3.80;99.90
19017;DHT22;9641;51.494;6.670;2023-02-25T03:09:37;3.80;99.90
19017;DHT22;9641;51.494;6.670;2023-02-25T03:12:06;3.80;99.90
19017;DHT22;9641;51.494;6.670;2023-02-25T03:14:35;3.80;99.90
19017;DHT22;9641;51.494;6.670;2023-02-25T03:17:07;3.80;99.90
19017;DHT22;9641;51.494;6.670;2023-02-25T03:19:38;3.80;99.90
19017;DHT22;9641;51.494;6.670;2023-02-25T03:22:08;3.80;99.90
19017;DHT22;9641;51.494;6.670;2023-02-25T03:24:40;3.80;99.90
19017;DHT22;9641;51.494;6.670;2023-02-25T03:27:23;3.80;99.90
19017;DHT22;9641;51.494;6.670;2023-02-25T03:29:56;3.80;99.90
19017;DHT22;9641;51.494;6.670;2023-02-25T03:32:29;3.80;99.90
19017;DHT22;9641;51.494;6.670;2023-02-25T03:34:59;3.80;99.90
19017;DHT22;9641;51.494;6.670;2023-02-25T03:37:28;3.80;99.90
19017;DHT22;9641;51.494;6.670;2023-02-25T03:39:59;3.80;99.90
19017;DHT22;9641;51.494;6.670;2023-02-25T03:42:33;3.70;99.90
19017;DHT22;9641;51.494;6.670;2023-02-25T03:45:02;3.80;99.90
19017;DHT22;9641;51.494;6.670;2023-02-25T03:47:34;3.80;99.90
19017;DHT22;9641;51.494;6.670;2023-02-25T03:50:06;3.80;99.90
19017;DHT22;9641;51.494;6.670;2023-02-25T03:52:38;3.80;99.90
19017;DHT22;9641;51.494;6.670;2023-02-25T03:55:13;3.80;99.90
19017;DHT22;9641;51.494;6.670;2023-02-25T03:57:44;3.80;99.90
19017;DHT22;9641;51.494;6.670;2023-02-25T04:00:20;3.80;99.90
19017;DHT22;9641;51.494;6.670;2023-02-25T04:02:49;3.80;99.90
19017;DHT22;9641;51.494;6.670;2023-02-25T04:05:18;3.80;99.90
19017;DHT22;9641;51.494;6.670;2023-02-25T04:07:46;3.90;99.90
19017;DHT22;9641;51.494;6.670;2023-02-25T04:10:15;3.80;99.90
19017;DHT22;9641;51.494;6.670;2023-02-25T04:12:43;3.90;99.90
19017;DHT22;9641;51.494;6.670;2023-02-25T04:15:11;3.90;99.90
19017;DHT22;9641;51.494;6.670;2023-02-25T04:17:39;3.90;99.90
19017;DHT22;9641;51.494;6.670;2023-02-25T04:20:09;3.90;99.90
19017;DHT22;9641;51.494;6.670;2023-02-25T04:22:36;3.90;99.90
19017;DHT22;9641;51.494;6.670;2023-02-25T04:25:03;3.90;99.90
19017;DHT22;9641;51.494;6.670;2023-02-25T04:27:30;3.90;99.90
19017;DHT22;9641;51.494;6.670;2023-02-25T04:29:57;3.90;99.90
19017;DHT22;9641;51.494;6.670;2023-02-25T04:32:24;3.90;99.90
19017;DHT22;9641;51.494;6.670;2023-02-25T04:34:51;3.80;99.90
19017;DHT22;9641;51.494;6.670;2023-02-25T04:37:19;3.80;99.90
19017;DHT22;9641;51.494;6.670;2023-02-25T04:39:46;3.90;99.90
19017;DHT22;9641;51.494;6.670;2023-02-25T04:42:13;3.90;99.90
19017;DHT22;9641;51.494;6.670;2023-02-25T04:44:40;3.80;99.90
19017;DHT22;9641;51.494;6.670;2023-02-25T04:47:07;3.90;99.90
19017;DHT22;9641;51.494;6.670;2023-02-25T04:49:34;4.00;99.90
19017;DHT22;9641;51.494;6.670;2023-02-25T04:52:09;3.90;99.90
19017;DHT22;9641;51.494;6.670;2023-02-25T04:54:37;4.00;99.90
19017;DHT22;9641;51.494;6.670;2023-02-25T04:57:04;4.00;99.90
19017;DHT22;9641;51.494;6.670;2023-02-25T04:59:31;4.00;99.90
19017;DHT22;9641;51.494;6.670;2023-02-25T05:01:58;4.00;99.90
19017;DHT22;9641;51.494;6.670;2023-02-25T05:04:25;4.00;99.90
19017;DHT22;9641;51.494;6.670;2023-02-25T05:06:51;4.00;99.90
19017;DHT22;9641;51.494;6.670;2023-02-25T05:09:18;4.00;99.90
19017;DHT22;9641;51.494;6.670;2023-02-25T05:11:47;4.00;99.90
19017;DHT22;9641;51.494;6.670;2023-02-25T05:14:14;3.90;99.90
19017;DHT22;9641;51.494;6.670;2023-02-25T05:16:41;3.90;99.90
19017;DHT22;9641;51.494;6.670;2023-02-25T05:19:13;3.80;99.90
19017;DHT22;9641;51.494;6.670;2023-02-25T05:21:40;3.80;99.90
19017;DHT22;9641;51.494;6.670;2023-02-25T05:24:07;3.80;99.90
19017;DHT22;9641;51.494;6.670;2023-02-25T05:26:34;3.80;99.90
19017;DHT22;9641;51.494;6.670;2023-02-25T05:29:02;3.90;99.90
19017;DHT22;9641;51.494;6.670;2023-02-25T05:31:29;3.90;99.90
19017;DHT22;9641;51.494;6.670;2023-02-25T05:33:56;4.00;99.90
19017;DHT22;9641;51.494;6.670;2023-02-25T05:36:23;4.00;99.90
19017;DHT22;9641;51.494;6.670;2023-02-25T05:38:52;4.00;99.90
19017;DHT22;9641;51.494;6.670;2023-02-25T05:41:19;4.00;99.90
19017;DHT22;9641;51.494;6.670;2023-02-25T05:43:46;4.00;99.90
19017;DHT22;9641;51.494;6.670;2023-02-25T05:46:14;4.00;99.90
19017;DHT22;9641;51.494;6.670;2023-02-25T05:48:42;4.00;99.90
19017;DHT22;9641;51.494;6.670;2023-02-25T05:51:12;4.00;99.90
19017;DHT22;9641;51.494;6.670;2023-02-25T05:53:40;3.90;99.90
19017;DHT22;9641;51.494;6.670;2023-02-25T05:56:12;3.90;99.90
19017;DHT22;9641;51.494;6.670;2023-02-25T05:58:39;4.00;99.90
19017;DHT22;9641;51.494;6.670;2023-02-25T06:01:08;4.00;99.90
19017;DHT22;9641;51.494;6.670;2023-02-25T06:03:40;3.90;99.90
19017;DHT22;9641;51.494;6.670;2023-02-25T06:06:08;4.00;99.90
19017;DHT22;9641;51.494;6.670;2023-02-25T06:08:38;4.00;99.90
19017;DHT22;9641;51.494;6.670;2023-02-25T06:11:05;4.00;99.90
19017;DHT22;9641;51.494;6.670;2023-02-25T06:13:33;4.00;99.90
19017;DHT22;9641;51.494;6.670;2023-02-25T06:16:02;4.00;99.90
19017;DHT22;9641;51.494;6.670;2023-02-25T06:18:28;4.00;99.90
19017;DHT22;9641;51.494;6.670;2023-02-25T06:21:04;4.00;99.90
19017;DHT22;9641;51.494;6.670;2023-02-25T06:23:32;4.00;99.90
19017;DHT22;9641;51.494;6.670;2023-02-25T06:25:59;3.90;99.90
19017;DHT22;9641;51.494;6.670;2023-02-25T06:28:27;3.90;99.90
19017;DHT22;9641;51.494;6.670;2023-02-25T06:30:54;3.80;99.90
19017;DHT22;9641;51.494;6.670;2023-02-25T06:33:21;3.70;99.90
19017;DHT22;9641;51.494;6.670;2023-02-25T06:35:50;3.70;99.90
19017;DHT22;9641;51.494;6.670;2023-02-25T06:38:19;3.70;99.90
19017;DHT22;9641;51.494;6.670;2023-02-25T06:40:46;3.70;99.90
19017;DHT22;9641;51.494;6.670;2023-02-25T06:43:14;3.80;99.90
19017;DHT22;9641;51.494;6.670;2023-02-25T06:45:41;3.80;99.90
19017;DHT22;9641;51.494;6.670;2023-02-25T06:48:08;3.80;99.90
19017;DHT22;9641;51.494;6.670;2023-02-25T06:50:37;3.80;99.90
19017;DHT22;9641;51.494;6.670;2023-02-25T06:53:05;3.90;99.90
19017;DHT22;9641;51.494;6.670;2023-02-25T06:55:33;3.90;99.90
19017;DHT22;9641;51.494;6.670;2023-02-25T06:58:00;3.90;99.90
19017;DHT22;9641;51.494;6.670;2023-02-25T07:00:27;3.90;99.90
19017;DHT22;9641;51.494;6.670;2023-02-25T07:02:54;3.90;99.90
19017;DHT22;9641;51.494;6.670;2023-02-25T07:05:21;3.90;99.90
19017;DHT22;9641;51.494;6.670;2023-02-25T07:07:48;3.90;99.90
19017;DHT22;9641;51.494;6.670;2023-02-25T07:10:15;3.90;99.90
19017;DHT22;9641;51.494;6.670;2023-02-25T07:12:43;4.00;99.90
19017;DHT22;9641;51.494;6.670;2023-02-25T07:15:10;4.00;99.90
19017;DHT22;9641;51.494;6.670;2023-02-25T07:17:37;4.00;99.90
19017;DHT22;9641;51.494;6.670;2023-02-25T07:20:05;4.10;99.90
19017;DHT22;9641;51.494;6.670;2023-02-25T07:22:32;4.00;99.90
19017;DHT22;9641;51.494;6.670;2023-02-25T07:24:59;4.00;99.90
19017;DHT22;9641;51.494;6.670;2023-02-25T07:27:26;4.10;99.90
19017;DHT22;9641;51.494;6.670;2023-02-25T07:29:54;4.20;99.90
19017;DHT22;9641;51.494;6.670;2023-02-25T07:32:23;4.20;99.90
19017;DHT22;9641;51.494;6.670;2023-02-25T07:34:50;4.30;99.90
19017;DHT22;9641;51.494;6.670;2023-02-25T07:37:16;4.30;99.90
19017;DHT22;9641;51.494;6.670;2023-02-25T07:39:43;4.40;99.90
19017;DHT22;9641;51.494;6.670;2023-02-25T07:42:10;4.50;99.90
19017;DHT22;9641;51.494;6.670;2023-02-25T07:44:37;4.50;99.90
19017;DHT22;9641;51.494;6.670;2023-02-25T07:47:05;4.50;99.90
19017;DHT22;9641;51.494;6.670;2023-02-25T07:49:32;4.50;99.90
19017;DHT22;9641;51.494;6.670;2023-02-25T07:51:59;4.50;99.90
19017;DHT22;9641;51.494;6.670;2023-02-25T07:54:26;4.50;99.90
19017;DHT22;9641;51.494;6.670;2023-02-25T07:56:53;4.40;99.90
19017;DHT22;9641;51.494;6.670;2023-02-25T07:59:20;4.40;99.90
19017;DHT22;9641;51.494;6.670;2023-02-25T08:01:47;4.40;99.90
19017;DHT22;9641;51.494;6.670;2023-02-25T08:04:16;4.20;99.90
19017;DHT22;9641;51.494;6.670;2023-02-25T08:06:47;4.10;99.90
19017;DHT22;9641;51.494;6.670;2023-02-25T08:09:14;4.20;99.90
19017;DHT22;9641;51.494;6.670;2023-02-25T08:11:41;4.10;99.90
19017;DHT22;9641;51.494;6.670;2023-02-25T08:14:08;4.20;99.90
19017;DHT22;9641;51.494;6.670;2023-02-25T08:16:35;4.20;99.90
19017;DHT22;9641;51.494;6.670;2023-02-25T08:19:03;4.20;99.90
19017;DHT22;9641;51.494;6.670;2023-02-25T08:21:32;4.10;99.90
19017;DHT22;9641;51.494;6.670;2023-02-25T08:23:59;4.10;99.90
19017;DHT22;9641;51.494;6.670;2023-02-25T08:26:26;4.20;99.90
19017;DHT22;9641;51.494;6.670;2023-02-25T08:28:54;4.20;99.90
19017;DHT22;9641;51.494;6.670;2023-02-25T08:31:21;4.30;99.90
19017;DHT22;9641;51.494;6.670;2023-02-25T08:33:49;4.40;99.90
19017;DHT22;9641;51.494;6.670;2023-02-25T08:36:19;4.50;99.90
19017;DHT22;9641;51.494;6.670;2023-02-25T08:38:48;4.60;99.90
19017;DHT22;9641;51.494;6.670;2023-02-25T08:41:15;4.80;99.90
19017;DHT22;9641;51.494;6.670;2023-02-25T08:43:42;5.00;99.90
19017;DHT22;9641;51.494;6.670;2023-02-25T08:46:10;4.80;99.90
19017;DHT22;9641;51.494;6.670;2023-02-25T08:48:38;4.80;99.90
19017;DHT22;9641;51.494;6.670;2023-02-25T08:51:06;4.70;99.90
19017;DHT22;9641;51.494;6.670;2023-02-25T08:53:33;4.60;99.90
19017;DHT22;9641;51.494;6.670;2023-02-25T08:56:04;4.60;99.90
19017;DHT22;9641;51.494;6.670;2023-02-25T08:58:31;4.50;99.90
19017;DHT22;9641;51.494;6.670;2023-02-25T09:00:58;4.40;99.90
19017;DHT22;9641;51.494;6.670;2023-02-25T09:03:25;4.60;99.90
19017;DHT22;9641;51.494;6.670;2023-02-25T09:05:52;4.80;99.90
19017;DHT22;9641;51.494;6.670;2023-02-25T09:08:19;5.20;99.90
19017;DHT22;9641;51.494;6.670;2023-02-25T09:10:46;5.60;99.90
19017;DHT22;9641;51.494;6.670;2023-02-25T09:13:15;5.80;99.90
19017;DHT22;9641;51.494;6.670;2023-02-25T09:15:42;6.10;99.90
19017;DHT22;9641;51.494;6.670;2023-02-25T09:18:09;6.10;99.90
19017;DHT22;9641;51.494;6.670;2023-02-25T09:20:37;6.10;99.90
19017;DHT22;9641;51.494;6.670;2023-02-25T09:23:04;6.00;99.90
19017;DHT22;9641;51.494;6.670;2023-02-25T09:25:31;6.10;99.90
19017;DHT22;9641;51.494;6.670;2023-02-25T09:27:58;5.80;99.90
19017;DHT22;9641;51.494;6.670;2023-02-25T09:30:26;5.70;99.90
19017;DHT22;9641;51.494;6.670;2023-02-25T09:32:53;5.50;99.90
19017;DHT22;9641;51.494;6.670;2023-02-25T09:35:20;5.40;99.90
19017;DHT22;9641;51.494;6.670;2023-02-25T09:37:47;5.30;99.90
19017;DHT22;9641;51.494;6.670;2023-02-25T09:40:16;5.20;99.90
19017;DHT22;9641;51.494;6.670;2023-02-25T09:42:54;5.20;99.90
19017;DHT22;9641;51.494;6.670;2023-02-25T09:45:28;5.10;99.90
19017;DHT22;9641;51.494;6.670;2023-02-25T09:47:58;5.20;99.90
19017;DHT22;9641;51.494;6.670;2023-02-25T09:50:29;5.30;99.90
19017;DHT22;9641;51.494;6.670;2023-02-25T09:53:04;5.30;99.90
19017;DHT22;9641;51.494;6.670;2023-02-25T09:55:34;5.30;99.90
19017;DHT22;9641;51.494;6.670;2023-02-25T09:58:05;5.40;99.90
19017;DHT22;9641;51.494;6.670;2023-02-25T10:00:39;5.50;99.90
19017;DHT22;9641;51.494;6.670;2023-02-25T10:03:14;5.60;99.90
19017;DHT22;9641;51.494;6.670;2023-02-25T10:05:50;5.60;99.90
19017;DHT22;9641;51.494;6.670;2023-02-25T10:08:22;5.50;99.90
19017;DHT22;9641;51.494;6.670;2023-02-25T10:10:59;5.50;99.90
19017;DHT22;9641;51.494;6.670;2023-02-25T10:13:36;5.30;99.90
19017;DHT22;9641;51.494;6.670;2023-02-25T10:16:24;5.30;99.90
19017;DHT22;9641;51.494;6.670;2023-02-25T10:19:03;5.40;99.90
19017;DHT22;9641;51.494;6.670;2023-02-25T10:21:48;5.70;99.90
19017;DHT22;9641;51.494;6.670;2023-02-25T10:24:27;6.10;99.90
19017;DHT22;9641;51.494;6.670;2023-02-25T10:26:58;6.50;99.90
19017;DHT22;9641;51.494;6.670;2023-02-25T10:29:33;7.00;99.90
19017;DHT22;9641;51.494;6.670;2023-02-25T10:32:22;7.20;58.10
19017;DHT22;9641;51.494;6.670;2023-02-25T10:34:50;7.40;24.00
19017;DHT22;9641;51.494;6.670;2023-02-25T10:37:21;7.30;1.00
19017;DHT22;9641;51.494;6.670;2023-02-25T10:39:56;7.20;1.00
19017;DHT22;9641;51.494;6.670;2023-02-25T10:42:25;6.80;1.00
19017;DHT22;9641;51.494;6.670;2023-02-25T10:44:52;6.60;53.60
19017;DHT22;9641;51.494;6.670;2023-02-25T10:47:27;6.50;6.40
19017;DHT22;9641;51.494;6.670;2023-02-25T10:50:13;6.40;9.70
19017;DHT22;9641;51.494;6.670;2023-02-25T10:52:55;6.60;1.00
19017;DHT22;9641;51.494;6.670;2023-02-25T10:55:29;7.00;1.00
19017;DHT22;9641;51.494;6.670;2023-02-25T10:57:59;8.10;1.00
19017;DHT22;9641;51.494;6.670;2023-02-25T11:00:28;9.70;99.90
19017;DHT22;9641;51.494;6.670;2023-02-25T11:02:57;9.70;1.00
19017;DHT22;9641;51.494;6.670;2023-02-25T11:05:35;9.50;1.00
19017;DHT22;9641;51.494;6.670;2023-02-25T11:08:23;10.10;1.00
19017;DHT22;9641;51.494;6.670;2023-02-25T11:11:04;10.00;99.90
19017;DHT22;9641;51.494;6.670;2023-02-25T11:13:34;10.00;99.90
19017;DHT22;9641;51.494;6.670;2023-02-25T11:16:05;10.90;69.70
19017;DHT22;9641;51.494;6.670;2023-02-25T11:18:35;11.40;1.00
19017;DHT22;9641;51.494;6.670;2023-02-25T11:21:05;10.80;1.00
19017;DHT22;9641;51.494;6.670;2023-02-25T11:23:38;9.50;1.00
19017;DHT22;9641;51.494;6.670;2023-02-25T11:26:13;8.70;1.00
19017;DHT22;9641;51.494;6.670;2023-02-25T11:28:45;8.00;1.00
19017;DHT22;9641;51.494;6.670;2023-02-25T11:31:17;7.60;99.90
19017;DHT22;9641;51.494;6.670;2023-02-25T11:33:52;7.40;1.00
19017;DHT22;9641;51.494;6.670;2023-02-25T11:36:24;7.30;99.90
19017;DHT22;9641;51.494;6.670;2023-02-25T11:39:05;7.10;1.00
19017;DHT22;9641;51.494;6.670;2023-02-25T11:41:33;7.30;1.00
19017;DHT22;9641;51.494;6.670;2023-02-25T11:44:16;7.80;1.00
19017;DHT22;9641;51.494;6.670;2023-02-25T11:46:46;7.70;99.90
19017;DHT22;9641;51.494;6.670;2023-02-25T11:49:22;7.90;99.90
19017;DHT22;9641;51.494;6.670;2023-02-25T11:51:56;10.00;99.90
19017;DHT22;9641;51.494;6.670;2023-02-25T11:54:32;11.90;1.00
19017;DHT22;9641;51.494;6.670;2023-02-25T11:57:06;13.00;1.00
19017;DHT22;9641;51.494;6.670;2023-02-25T11:59:36;13.20;1.00
19017;DHT22;9641;51.494;6.670;2023-02-25T12:02:19;13.30;1.00
19017;DHT22;9641;51.494;6.670;2023-02-25T12:05:24;12.00;1.00
19017;DHT22;9641;51.494;6.670;2023-02-25T12:08:13;9.90;1.00
19017;DHT22;9641;51.494;6.670;2023-02-25T12:14:01;8.00;1.00
19017;DHT22;9641;51.494;6.670;2023-02-25T12:25:42;8.10;1.00
19017;DHT22;9641;51.494;6.670;2023-02-25T12:28:53;7.90;1.00
19017;DHT22;9641;51.494;6.670;2023-02-25T12:32:05;8.40;1.00
19017;DHT22;9641;51.494;6.670;2023-02-25T12:34:53;8.80;1.00
19017;DHT22;9641;51.494;6.670;2023-02-25T12:37:38;8.10;1.00
19017;DHT22;9641;51.494;6.670;2023-02-25T12:40:32;7.80;1.00
19017;DHT22;9641;51.494;6.670;2023-02-25T12:43:11;8.50;1.00
19017;DHT22;9641;51.494;6.670;2023-02-25T12:46:04;10.20;1.00
19017;DHT22;9641;51.494;6.670;2023-02-25T12:51:51;10.40;1.00
19017;DHT22;9641;51.494;6.670;2023-02-25T12:54:40;8.40;1.00
19017;DHT22;9641;51.494;6.670;2023-02-25T12:57:30;7.70;1.00
19017;DHT22;9641;51.494;6.670;2023-02-25T13:03:13;11.60;1.00
19017;DHT22;9641;51.494;6.670;2023-02-25T13:06:25;13.00;1.00
19017;DHT22;9641;51.494;6.670;2023-02-25T13:09:13;12.50;1.00
19017;DHT22;9641;51.494;6.670;2023-02-25T13:11:56;10.50;1.00
19017;DHT22;9641;51.494;6.670;2023-02-25T13:14:39;10.00;1.00
19017;DHT22;9641;51.494;6.670;2023-02-25T13:17:23;10.40;1.00
19017;DHT22;9641;51.494;6.670;2023-02-25T13:20:31;11.40;1.00
19017;DHT22;9641;51.494;6.670;2023-02-25T13:23:17;12.70;1.00
19017;DHT22;9641;51.494;6.670;2023-02-25T13:26:02;13.00;1.00
19017;DHT22;9641;51.494;6.670;2023-02-25T13:28:44;12.80;99.90
19017;DHT22;9641;51.494;6.670;2023-02-25T13:31:23;12.40;99.90
19017;DHT22;9641;51.494;6.670;2023-02-25T13:34:01;12.20;99.90
19017;DHT22;9641;51.494;6.670;2023-02-25T13:36:51;11.90;99.90
19017;DHT22;9641;51.494;6.670;2023-02-25T13:39:39;12.80;99.90
19017;DHT22;9641;51.494;6.670;2023-02-25T13:42:26;13.80;99.90
19017;DHT22;9641;51.494;6.670;2023-02-25T13:45:23;13.40;99.90
19017;DHT22;9641;51.494;6.670;2023-02-25T13:48:03;13.40;99.90
19017;DHT22;9641;51.494;6.670;2023-02-25T13:51:00;14.10;99.90
19017;DHT22;9641;51.494;6.670;2023-02-25T13:56:44;14.40;99.90
19017;DHT22;9641;51.494;6.670;2023-02-25T13:59:24;13.10;99.90
19017;DHT22;9641;51.494;6.670;2023-02-25T14:02:19;11.50;99.90
19017;DHT22;9641;51.494;6.670;2023-02-25T14:05:13;10.50;99.90
19017;DHT22;9641;51.494;6.670;2023-02-25T14:08:06;11.40;99.90
19017;DHT22;9641;51.494;6.670;2023-02-25T14:10:44;12.60;99.90
19017;DHT22;9641;51.494;6.670;2023-02-25T14:13:33;13.00;99.90
19017;DHT22;9641;51.494;6.670;2023-02-25T14:16:17;13.00;99.90
19017;DHT22;9641;51.494;6.670;2023-02-25T14:18:58;13.60;99.90
19017;DHT22;9641;51.494;6.670;2023-02-25T14:21:40;13.90;99.90
19017;DHT22;9641;51.494;6.670;2023-02-25T14:24:14;14.20;99.90
19017;DHT22;9641;51.494;6.670;2023-02-25T14:26:52;13.80;99.90
19017;DHT22;9641;51.494;6.670;2023-02-25T14:29:37;14.40;99.90
19017;DHT22;9641;51.494;6.670;2023-02-25T14:32:31;15.10;99.90
19017;DHT22;9641;51.494;6.670;2023-02-25T14:35:14;14.40;99.90
19017;DHT22;9641;51.494;6.670;2023-02-25T14:37:55;14.20;99.90
19017;DHT22;9641;51.494;6.670;2023-02-25T14:40:29;14.00;99.90
19017;DHT22;9641;51.494;6.670;2023-02-25T14:43:26;13.20;99.90
19017;DHT22;9641;51.494;6.670;2023-02-25T14:45:59;13.80;99.90
19017;DHT22;9641;51.494;6.670;2023-02-25T14:48:34;14.00;99.90
19017;DHT22;9641;51.494;6.670;2023-02-25T14:57:55;12.80;99.90
19017;DHT22;9641;51.494;6.670;2023-02-25T15:00:46;13.80;99.90
19017;DHT22;9641;51.494;6.670;2023-02-25T15:03:40;13.30;99.90
19017;DHT22;9641;51.494;6.670;2023-02-25T15:06:18;13.60;99.90
19017;DHT22;9641;51.494;6.670;2023-02-25T15:09:12;13.00;99.90
19017;DHT22;9641;51.494;6.670;2023-02-25T15:11:53;12.70;99.90
19017;DHT22;9641;51.494;6.670;2023-02-25T15:14:54;12.20;99.90
19017;DHT22;9641;51.494;6.670;2023-02-25T15:20:35;13.40;99.90
19017;DHT22;9641;51.494;6.670;2023-02-25T15:23:06;12.50;99.90
19017;DHT22;9641;51.494;6.670;2023-02-25T15:25:40;11.60;99.90
19017;DHT22;9641;51.494;6.670;2023-02-25T15:28:32;10.10;99.90
19017;DHT22;9641;51.494;6.670;2023-02-25T15:37:29;7.30;99.90
19017;DHT22;9641;51.494;6.670;2023-02-25T15:42:58;7.00;99.90
19017;DHT22;9641;51.494;6.670;2023-02-25T15:45:39;6.90;99.90
19017;DHT22;9641;51.494;6.670;2023-02-25T15:48:31;6.90;99.90
19017;DHT22;9641;51.494;6.670;2023-02-25T15:51:00;6.70;99.90
19017;DHT22;9641;51.494;6.670;2023-02-25T15:53:40;6.60;99.90
19017;DHT22;9641;51.494;6.670;2023-02-25T15:56:28;6.50;99.90
19017;DHT22;9641;51.494;6.670;2023-02-25T15:58:57;6.40;99.90
19017;DHT22;9641;51.494;6.670;2023-02-25T16:01:36;6.40;99.90
19017;DHT22;9641;51.494;6.670;2023-02-25T16:04:44;6.40;99.90
19017;DHT22;9641;51.494;6.670;2023-02-25T16:07:20;6.30;99.90
19017;DHT22;9641;51.494;6.670;2023-02-25T16:09:54;6.30;99.90
19017;DHT22;9641;51.494;6.670;2023-02-25T16:12:26;6.00;99.90
19017;DHT22;9641;51.494;6.670;2023-02-25T16:14:57;6.00;99.90
19017;DHT22;9641;51.494;6.670;2023-02-25T16:17:29;6.00;99.90
19017;DHT22;9641;51.494;6.670;2023-02-25T16:20:09;5.90;99.90
19017;DHT22;9641;51.494;6.670;2023-02-25T16:22:44;5.80;99.90
19017;DHT22;9641;51.494;6.670;2023-02-25T16:25:15;5.80;99.90
19017;DHT22;9641;51.494;6.670;2023-02-25T16:27:53;5.80;99.90
19017;DHT22;9641;51.494;6.670;2023-02-25T16:30:31;5.70;99.90
19017;DHT22;9641;51.494;6.670;2023-02-25T16:33:10;5.60;99.90
19017;DHT22;9641;51.494;6.670;2023-02-25T16:35:48;5.50;99.90
19017;DHT22;9641;51.494;6.670;2023-02-25T16:38:21;5.40;99.90
19017;DHT22;9641;51.494;6.670;2023-02-25T16:40:52;5.40;99.90
19017;DHT22;9641;51.494;6.670;2023-02-25T16:43:22;5.30;99.90
19017;DHT22;9641;51.494;6.670;2023-02-25T16:45:54;5.30;99.90
19017;DHT22;9641;51.494;6.670;2023-02-25T16:48:27;5.30;99.90
19017;DHT22;9641;51.494;6.670;2023-02-25T16:51:08;5.30;99.90
19017;DHT22;9641;51.494;6.670;2023-02-25T16:53:40;5.20;99.90
19017;DHT22;9641;51.494;6.670;2023-02-25T16:56:13;5.10;99.90
19017;DHT22;9641;51.494;6.670;2023-02-25T16:58:58;5.00;99.90
19017;DHT22;9641;51.494;6.670;2023-02-25T17:01:28;4.90;99.90
19017;DHT22;9641;51.494;6.670;2023-02-25T17:04:11;4.90;99.90
19017;DHT22;9641;51.494;6.670;2023-02-25T17:06:41;4.80;99.90
19017;DHT22;9641;51.494;6.670;2023-02-25T17:09:22;4.80;99.90
19017;DHT22;9641;51.494;6.670;2023-02-25T17:11:53;4.70;99.90
19017;DHT22;9641;51.494;6.670;2023-02-25T17:14:21;4.70;99.90
19017;DHT22;9641;51.494;6.670;2023-02-25T17:16:50;4.60;99.90
19017;DHT22;9641;51.494;6.670;2023-02-25T17:19:18;4.50;99.90
19017;DHT22;9641;51.494;6.670;2023-02-25T17:21:52;4.50;99.90